createdAt,value
2023-02-03T00:00:20.079Z,10.90
2023-02-03T00:03:05.589Z,10.90
2023-02-03T00:05:51.221Z,10.80
2023-02-03T00:08:38.524Z,10.80
2023-02-03T00:11:30.830Z,10.80
2023-02-03T00:14:17.243Z,10.80
2023-02-03T00:17:02.677Z,10.80
2023-02-03T00:19:48.149Z,10.80
2023-02-03T00:22:33.476Z,10.70
2023-02-03T00:25:18.974Z,10.70
2023-02-03T00:28:05.359Z,10.50
2023-02-03T00:30:54.127Z,10.50
2023-02-03T00:33:39.695Z,10.50
2023-02-03T00:36:26.945Z,10.60
2023-02-03T00:39:12.545Z,10.60
2023-02-03T00:41:57.899Z,10.60
2023-02-03T00:44:43.305Z,10.60
2023-02-03T00:47:28.760Z,10.60
2023-02-03T00:50:15.493Z,10.60
2023-02-03T00:53:00.891Z,10.60
2023-02-03T00:55:46.948Z,10.60
2023-02-03T00:58:32.245Z,10.60
2023-02-03T01:01:22.502Z,10.60
2023-02-03T01:04:08.900Z,10.70
2023-02-03T01:06:58.222Z,10.70
2023-02-03T01:09:43.749Z,10.70
2023-02-03T01:12:33.597Z,10.70
2023-02-03T01:15:19.052Z,10.70
2023-02-03T01:18:04.560Z,10.70
2023-02-03T01:20:50.176Z,10.70
2023-02-03T01:23:37.095Z,10.70
2023-02-03T01:26:24.910Z,10.70
2023-02-03T01:29:13.211Z,10.80
2023-02-03T01:32:03.992Z,10.80
2023-02-03T01:34:49.558Z,10.80
2023-02-03T01:37:35.008Z,10.80
2023-02-03T01:40:22.945Z,10.80
2023-02-03T01:43:11.682Z,10.80
2023-02-03T01:45:58.334Z,10.80
2023-02-03T01:48:44.474Z,10.80
2023-02-03T01:51:30.815Z,10.80
2023-02-03T01:54:25.214Z,10.80
2023-02-03T01:57:17.785Z,10.90
2023-02-03T02:00:05.435Z,10.90
2023-02-03T02:03:00.792Z,10.90
2023-02-03T02:06:03.076Z,10.90
2023-02-03T02:08:52.208Z,10.90
2023-02-03T02:11:37.611Z,11.00
2023-02-03T02:14:22.905Z,11.00
2023-02-03T02:17:25.770Z,11.00
2023-02-03T02:20:37.355Z,11.00
2023-02-03T02:23:59.795Z,11.00
2023-02-03T02:27:01.177Z,11.00
2023-02-03T02:30:17.220Z,11.00
2023-02-03T02:33:09.545Z,11.00
2023-02-03T02:36:45.824Z,11.00
2023-02-03T02:39:43.840Z,11.00
2023-02-03T02:42:40.795Z,11.00
2023-02-03T02:45:32.372Z,11.00
2023-02-03T02:48:29.948Z,11.00
2023-02-03T02:51:16.740Z,11.00
2023-02-03T02:54:06.290Z,11.00
2023-02-03T02:57:01.664Z,11.10
2023-02-03T02:59:51.242Z,11.00
2023-02-03T03:02:37.304Z,11.00
2023-02-03T03:05:24.044Z,11.00
2023-02-03T03:08:12.174Z,11.00
2023-02-03T03:11:00.693Z,11.00
2023-02-03T03:13:51.026Z,11.00
2023-02-03T03:16:42.228Z,11.00
2023-02-03T03:19:34.707Z,11.00
2023-02-03T03:22:27.139Z,11.00
2023-02-03T03:25:18.997Z,11.00
2023-02-03T03:28:11.799Z,11.00
2023-02-03T03:30:58.002Z,11.10
2023-02-03T03:33:44.406Z,11.00
2023-02-03T03:36:44.190Z,11.00
2023-02-03T03:39:41.661Z,11.10
2023-02-03T03:42:36.552Z,11.10
2023-02-03T03:45:32.272Z,11.10
2023-02-03T03:48:25.835Z,11.10
2023-02-03T03:51:33.525Z,11.10
2023-02-03T03:54:22.104Z,11.10
2023-02-03T03:57:18.201Z,11.10
2023-02-03T04:00:09.555Z,11.10
2023-02-03T04:03:08.448Z,11.00
2023-02-03T04:05:54.169Z,11.00
2023-02-03T04:08:42.626Z,11.10
2023-02-03T04:11:46.373Z,11.10
2023-02-03T04:14:38.705Z,11.00
2023-02-03T04:17:24.696Z,11.00
2023-02-03T04:20:10.545Z,11.00
2023-02-03T04:22:56.131Z,11.00
2023-02-03T04:25:41.617Z,11.00
2023-02-03T04:28:27.153Z,11.00
2023-02-03T04:31:12.928Z,11.00
2023-02-03T04:33:58.224Z,11.00
2023-02-03T04:36:43.912Z,11.00
2023-02-03T04:39:29.213Z,11.00
2023-02-03T04:42:14.744Z,11.00
2023-02-03T04:45:00.253Z,11.00
2023-02-03T04:47:45.793Z,11.00
2023-02-03T04:50:34.655Z,11.00
2023-02-03T04:53:25.569Z,11.10
2023-02-03T04:56:11.421Z,11.10
2023-02-03T04:58:56.829Z,11.00
2023-02-03T05:01:42.403Z,11.10
2023-02-03T05:04:38.132Z,11.10
2023-02-03T05:07:25.629Z,11.00
2023-02-03T05:10:11.183Z,11.10
2023-02-03T05:12:56.690Z,11.10
2023-02-03T05:15:42.235Z,11.00
2023-02-03T05:18:27.547Z,11.10
2023-02-03T05:21:13.191Z,11.00
2023-02-03T05:23:58.548Z,11.10
2023-02-03T05:26:44.018Z,11.00
2023-02-03T05:29:29.332Z,11.00
2023-02-03T05:32:14.855Z,11.00
2023-02-03T05:35:00.530Z,11.00
2023-02-03T05:37:46.183Z,11.00
2023-02-03T05:40:50.257Z,11.00
2023-02-03T05:43:38.279Z,11.00
2023-02-03T05:46:26.929Z,11.00
2023-02-03T05:49:12.267Z,11.00
2023-02-03T05:52:00.712Z,11.00
2023-02-03T05:54:46.548Z,11.00
2023-02-03T05:57:32.505Z,11.00
2023-02-03T06:00:18.653Z,11.00
2023-02-03T06:03:04.769Z,11.00
2023-02-03T06:05:50.424Z,11.10
2023-02-03T06:08:35.668Z,11.10
2023-02-03T06:11:27.173Z,11.10
2023-02-03T06:14:14.492Z,11.10
2023-02-03T06:17:00.601Z,11.10
2023-02-03T06:19:49.270Z,11.10
2023-02-03T06:22:35.827Z,11.10
2023-02-03T06:25:28.033Z,11.10
2023-02-03T06:28:13.389Z,11.10
2023-02-03T06:30:59.761Z,11.10
2023-02-03T06:33:45.461Z,11.00
2023-02-03T06:36:31.304Z,11.00
2023-02-03T06:39:16.554Z,11.00
2023-02-03T06:42:02.665Z,11.00
2023-02-03T06:44:51.705Z,11.00
2023-02-03T06:47:45.683Z,11.00
2023-02-03T06:50:31.112Z,11.00
2023-02-03T06:53:16.363Z,11.10
2023-02-03T06:56:03.419Z,11.10
2023-02-03T06:58:48.777Z,11.10
2023-02-03T07:01:34.436Z,11.10
2023-02-03T07:04:22.957Z,11.10
2023-02-03T07:07:12.737Z,11.10
2023-02-03T07:09:57.972Z,11.10
2023-02-03T07:12:44.377Z,11.10
2023-02-03T07:15:29.795Z,11.20
2023-02-03T07:18:30.892Z,11.20
2023-02-03T07:21:21.455Z,11.20
2023-02-03T07:24:06.818Z,11.20
2023-02-03T07:26:53.252Z,11.20
2023-02-03T07:29:41.189Z,11.20
2023-02-03T07:32:26.323Z,11.30
2023-02-03T07:35:11.939Z,11.30
2023-02-03T07:37:57.528Z,11.30
2023-02-03T07:40:42.851Z,11.30
2023-02-03T07:43:28.612Z,11.30
2023-02-03T07:46:14.065Z,11.30
2023-02-03T07:48:59.392Z,11.30
2023-02-03T07:51:50.759Z,11.40
2023-02-03T07:54:39.458Z,11.40
2023-02-03T07:57:28.488Z,11.40
2023-02-03T08:00:16.473Z,11.40
2023-02-03T08:03:05.044Z,11.40
2023-02-03T08:05:51.113Z,11.40
2023-02-03T08:08:37.460Z,11.40
2023-02-03T08:11:24.509Z,11.40
2023-02-03T08:14:10.005Z,11.40
2023-02-03T08:16:55.500Z,11.40
2023-02-03T08:19:41.155Z,11.50
2023-02-03T08:22:26.771Z,11.50
2023-02-03T08:25:14.997Z,11.50
2023-02-03T08:28:00.660Z,11.60
2023-02-03T08:30:48.895Z,11.70
2023-02-03T08:33:34.224Z,11.70
2023-02-03T08:36:19.479Z,11.70
2023-02-03T08:39:06.320Z,11.70
2023-02-03T08:41:51.588Z,11.70
2023-02-03T08:44:39.158Z,11.80
2023-02-03T08:47:25.263Z,11.80
2023-02-03T08:50:11.039Z,11.80
2023-02-03T08:52:56.782Z,11.80
2023-02-03T08:55:42.236Z,11.80
2023-02-03T08:58:27.763Z,11.80
2023-02-03T09:01:15.218Z,11.80
2023-02-03T09:04:04.366Z,11.90
2023-02-03T09:06:50.745Z,11.90
2023-02-03T09:09:39.446Z,12.00
2023-02-03T09:12:25.052Z,12.00
2023-02-03T09:15:12.950Z,12.10
2023-02-03T09:17:58.596Z,12.10
2023-02-03T09:20:44.263Z,12.20
2023-02-03T09:23:29.795Z,12.20
2023-02-03T09:26:17.173Z,12.20
2023-02-03T09:29:02.493Z,12.30
2023-02-03T09:31:53.026Z,12.30
2023-02-03T09:34:39.928Z,12.30
2023-02-03T09:37:25.541Z,12.40
2023-02-03T09:40:22.210Z,12.40
2023-02-03T09:43:18.027Z,12.40
2023-02-03T09:46:22.663Z,12.50
2023-02-03T09:49:21.337Z,12.50
2023-02-03T09:52:14.757Z,12.60
2023-02-03T09:55:20.422Z,12.70
2023-02-03T09:58:07.122Z,12.70
2023-02-03T10:01:06.327Z,12.90
2023-02-03T10:04:09.816Z,12.90
2023-02-03T10:07:25.620Z,12.90
2023-02-03T10:10:13.666Z,13.00
2023-02-03T10:13:31.293Z,13.00
2023-02-03T10:16:44.893Z,13.20
2023-02-03T10:19:46.094Z,13.30
2023-02-03T10:22:35.645Z,13.30
2023-02-03T10:25:33.646Z,13.40
2023-02-03T10:28:24.947Z,13.40
2023-02-03T10:31:19.855Z,13.50
2023-02-03T10:34:13.486Z,13.60
2023-02-03T10:37:11.566Z,13.60
2023-02-03T10:39:59.475Z,13.60
2023-02-03T10:43:06.823Z,13.70
2023-02-03T10:45:52.337Z,13.70
2023-02-03T10:48:37.571Z,13.80
2023-02-03T10:51:24.868Z,13.80
2023-02-03T10:54:33.813Z,13.80
2023-02-03T10:57:19.300Z,13.90
2023-02-03T11:00:24.139Z,13.90
2023-02-03T11:03:24.754Z,14.00
2023-02-03T11:06:14.195Z,14.00
2023-02-03T11:09:00.463Z,14.10
2023-02-03T11:11:45.757Z,14.10
2023-02-03T11:14:37.793Z,14.10
2023-02-03T11:17:29.711Z,14.20
2023-02-03T11:20:17.000Z,14.10
2023-02-03T11:23:04.627Z,14.10
2023-02-03T11:25:52.455Z,14.10
2023-02-03T11:28:43.333Z,14.10
2023-02-03T11:31:32.515Z,14.00
2023-02-03T11:34:31.292Z,13.90
2023-02-03T11:37:34.858Z,14.00
2023-02-03T11:40:29.692Z,13.90
2023-02-03T11:43:18.040Z,13.90
2023-02-03T11:46:10.087Z,13.80
2023-02-03T11:49:21.439Z,13.80
2023-02-03T11:52:38.206Z,13.70
2023-02-03T11:55:44.275Z,13.60
2023-02-03T11:58:44.661Z,13.60
2023-02-03T12:01:54.587Z,13.60
2023-02-03T12:05:00.938Z,13.60
2023-02-03T12:08:15.706Z,13.60
2023-02-03T12:11:32.405Z,13.60
2023-02-03T12:14:50.609Z,13.60
2023-02-03T12:17:45.867Z,13.80
2023-02-03T12:20:52.933Z,13.80
2023-02-03T12:23:55.713Z,13.80
2023-02-03T12:27:05.305Z,13.90
2023-02-03T12:30:10.149Z,13.90
2023-02-03T12:33:00.224Z,13.90
2023-02-03T12:36:00.642Z,13.90
2023-02-03T12:39:09.331Z,13.90
2023-02-03T12:42:04.746Z,13.90
2023-02-03T12:45:02.264Z,14.00
2023-02-03T12:47:55.585Z,14.00
2023-02-03T12:51:00.699Z,14.00
2023-02-03T12:53:55.416Z,14.00
2023-02-03T12:56:48.858Z,14.10
2023-02-03T12:59:41.973Z,14.20
2023-02-03T13:02:32.180Z,14.20
2023-02-03T13:05:28.602Z,14.10
2023-02-03T13:08:45.200Z,14.00
2023-02-03T13:12:08.240Z,14.00
2023-02-03T13:15:03.854Z,13.90
2023-02-03T13:18:09.516Z,13.70
2023-02-03T13:20:55.315Z,13.60
2023-02-03T13:23:44.868Z,13.50
2023-02-03T13:26:30.760Z,13.40
2023-02-03T13:29:36.989Z,13.30
2023-02-03T13:32:46.324Z,13.20
2023-02-03T13:35:47.588Z,13.10
2023-02-03T13:38:51.385Z,13.00
2023-02-03T13:41:53.875Z,12.90
2023-02-03T13:44:41.064Z,12.80
2023-02-03T13:47:29.788Z,12.70
2023-02-03T13:50:27.935Z,12.60
2023-02-03T13:53:26.078Z,12.50
2023-02-03T13:56:25.375Z,12.50
2023-02-03T13:59:14.096Z,12.40
2023-02-03T14:02:21.787Z,12.30
2023-02-03T14:05:29.584Z,12.30
2023-02-03T14:08:32.548Z,12.20
2023-02-03T14:11:36.520Z,12.20
2023-02-03T14:14:22.115Z,12.10
2023-02-03T14:17:33.592Z,12.10
2023-02-03T14:20:28.143Z,12.10
2023-02-03T14:23:33.987Z,12.10
2023-02-03T14:26:25.185Z,12.00
2023-02-03T14:29:32.531Z,12.00
2023-02-03T14:32:17.907Z,12.00
2023-02-03T14:35:19.100Z,12.00
2023-02-03T14:38:10.751Z,12.00
2023-02-03T14:41:06.212Z,12.00
2023-02-03T14:44:07.473Z,12.00
2023-02-03T14:47:11.786Z,12.00
2023-02-03T14:50:18.880Z,12.10
2023-02-03T14:53:31.200Z,12.10
2023-02-03T14:56:59.177Z,12.10
2023-02-03T14:59:58.274Z,12.10
2023-02-03T15:03:11.889Z,12.10
2023-02-03T15:06:05.355Z,12.10
2023-02-03T15:08:53.093Z,12.10
2023-02-03T15:11:45.269Z,12.00
2023-02-03T15:14:34.121Z,12.00
2023-02-03T15:17:26.818Z,12.10
2023-02-03T15:20:38.784Z,12.00
2023-02-03T15:23:29.507Z,12.00
2023-02-03T15:26:26.357Z,12.00
2023-02-03T15:29:28.053Z,12.00
2023-02-03T15:32:19.676Z,12.00
2023-02-03T15:35:09.949Z,12.00
2023-02-03T15:38:01.360Z,12.00
2023-02-03T15:40:54.664Z,12.00
2023-02-03T15:43:47.652Z,12.00
2023-02-03T15:46:45.436Z,12.00
2023-02-03T15:49:44.212Z,12.00
2023-02-03T15:52:31.587Z,12.00
2023-02-03T15:55:26.481Z,12.00
2023-02-03T15:58:19.347Z,12.00
2023-02-03T16:01:18.215Z,12.00
2023-02-03T16:04:14.430Z,12.00
2023-02-03T16:07:00.649Z,11.90
2023-02-03T16:09:46.415Z,11.90
2023-02-03T16:12:33.325Z,11.90
2023-02-03T16:15:28.549Z,11.80
2023-02-03T16:18:18.111Z,11.80
2023-02-03T16:21:05.517Z,11.70
2023-02-03T16:23:55.923Z,11.70
2023-02-03T16:26:41.219Z,11.60
2023-02-03T16:29:48.488Z,11.60
2023-02-03T16:32:52.397Z,11.60
2023-02-03T16:35:59.297Z,11.50
2023-02-03T16:39:07.883Z,11.50
2023-02-03T16:42:12.404Z,11.40
2023-02-03T16:45:17.597Z,11.40
2023-02-03T16:48:22.638Z,11.30
2023-02-03T16:51:15.923Z,11.30
2023-02-03T16:54:01.461Z,11.30
2023-02-03T16:56:48.280Z,11.20
2023-02-03T16:59:33.427Z,11.20
2023-02-03T17:02:19.043Z,11.20
2023-02-03T17:05:04.797Z,11.20
2023-02-03T17:07:51.320Z,11.10
2023-02-03T17:10:38.417Z,11.10
2023-02-03T17:13:25.510Z,11.10
2023-02-03T17:16:23.326Z,11.10
2023-02-03T17:19:12.611Z,11.10
2023-02-03T17:21:57.871Z,11.10
2023-02-03T17:24:43.705Z,11.10
2023-02-03T17:27:29.417Z,11.10
2023-02-03T17:30:17.966Z,11.00
2023-02-03T17:33:12.522Z,11.10
2023-02-03T17:36:06.037Z,11.10
2023-02-03T17:54:19.589Z,11.10
2023-02-03T17:57:05.672Z,11.10
2023-02-03T17:59:55.372Z,11.10
2023-02-03T18:02:42.565Z,11.10
2023-02-03T18:05:29.120Z,11.10
2023-02-03T18:08:16.335Z,11.10
2023-02-03T18:11:03.045Z,11.10
2023-02-03T18:13:50.144Z,11.10
2023-02-03T18:16:36.161Z,11.10
2023-02-03T18:19:21.802Z,11.10
2023-02-03T18:22:07.516Z,11.10
2023-02-03T18:24:53.025Z,11.10
2023-02-03T18:27:38.551Z,11.10
2023-02-03T18:30:23.868Z,11.10
2023-02-03T18:33:12.071Z,11.10
2023-02-03T18:35:58.581Z,11.10
2023-02-03T18:38:45.877Z,11.10
2023-02-03T18:41:31.421Z,11.10
2023-02-03T18:44:16.828Z,11.10
2023-02-03T18:47:07.142Z,11.10
2023-02-03T18:49:52.918Z,11.10
2023-02-03T18:52:38.438Z,11.10
2023-02-03T18:55:27.324Z,11.10
2023-02-03T18:58:16.151Z,11.10
2023-02-03T19:01:01.583Z,11.10
2023-02-03T19:03:46.879Z,11.10
2023-02-03T19:06:34.339Z,11.10
2023-02-03T19:09:25.609Z,11.10
2023-02-03T19:12:12.086Z,11.10
2023-02-03T19:14:57.513Z,11.10
2023-02-03T19:17:43.325Z,11.10
2023-02-03T19:20:29.287Z,11.10
2023-02-03T19:23:23.759Z,11.10
2023-02-03T19:26:10.080Z,11.10
2023-02-03T19:28:58.281Z,11.10
2023-02-03T19:31:43.974Z,11.10
2023-02-03T19:34:30.247Z,11.00
2023-02-03T19:37:15.814Z,11.00
2023-02-03T19:40:02.870Z,11.00
2023-02-03T19:42:49.049Z,10.90
2023-02-03T19:45:40.632Z,10.90
2023-02-03T19:48:26.472Z,10.90
2023-02-03T19:51:28.218Z,10.90
2023-02-03T19:54:15.343Z,10.90
2023-02-03T19:57:01.955Z,10.90
2023-02-03T19:59:51.344Z,10.80
2023-02-03T20:02:38.034Z,10.70
2023-02-03T20:05:23.826Z,10.70
2023-02-03T20:08:12.902Z,10.60
2023-02-03T20:10:58.531Z,10.60
2023-02-03T20:13:47.520Z,10.60
2023-02-03T20:16:35.883Z,10.50
2023-02-03T20:19:21.381Z,10.40
2023-02-03T20:22:12.198Z,10.40
2023-02-03T20:25:01.652Z,10.30
2023-02-03T20:27:49.940Z,10.30
2023-02-03T20:30:35.712Z,10.30
2023-02-03T20:33:21.284Z,10.30
2023-02-03T20:36:07.377Z,10.30
2023-02-03T20:38:55.689Z,10.30
2023-02-03T20:41:41.020Z,10.30
2023-02-03T20:44:26.659Z,10.20
2023-02-03T20:47:14.281Z,10.20
2023-02-03T20:49:59.691Z,10.10
2023-02-03T20:52:46.802Z,10.10
2023-02-03T20:55:32.142Z,10.10
2023-02-03T20:58:19.007Z,10.10
2023-02-03T21:01:13.853Z,10.10
2023-02-03T21:04:17.964Z,10.00
2023-02-03T21:07:14.713Z,10.00
2023-02-03T21:10:00.042Z,10.00
2023-02-03T21:12:45.853Z,10.00
2023-02-03T21:15:34.776Z,10.00
2023-02-03T21:18:25.568Z,10.00
2023-02-03T21:21:25.074Z,9.90
2023-02-03T21:24:51.081Z,9.90
2023-02-03T21:27:36.690Z,9.90
2023-02-03T21:30:32.609Z,9.90
2023-02-03T21:33:34.103Z,9.90
2023-02-03T21:36:24.270Z,9.90
2023-02-03T21:39:33.883Z,9.90
2023-02-03T21:42:43.576Z,9.90
2023-02-03T21:45:41.039Z,9.90
2023-02-03T21:48:48.516Z,9.80
2023-02-03T21:51:38.269Z,9.80
2023-02-03T21:54:26.767Z,9.80
2023-02-03T21:57:20.625Z,9.80
2023-02-03T22:00:37.523Z,9.80
2023-02-03T22:03:25.716Z,9.80
2023-02-03T22:06:45.684Z,9.80
2023-02-03T22:09:31.226Z,9.80
2023-02-03T22:12:16.545Z,9.90
2023-02-03T22:15:02.071Z,9.90
2023-02-03T22:17:49.895Z,9.90
2023-02-03T22:20:35.845Z,9.90
2023-02-03T22:23:21.523Z,9.90
2023-02-03T22:26:08.382Z,9.90
2023-02-03T22:28:57.234Z,9.90
2023-02-03T22:31:42.944Z,9.90
2023-02-03T22:34:28.555Z,9.90
2023-02-03T22:37:13.973Z,9.90
2023-02-03T22:39:59.713Z,9.90
2023-02-03T22:42:45.454Z,9.90
2023-02-03T22:45:30.913Z,9.90
2023-02-03T22:48:16.152Z,9.90
2023-02-03T22:51:01.840Z,9.90
2023-02-03T22:53:47.640Z,9.90
2023-02-03T22:56:32.933Z,9.90
2023-02-03T22:59:18.144Z,9.80
2023-02-03T23:02:03.948Z,9.90
2023-02-03T23:04:50.361Z,9.80
2023-02-03T23:07:37.082Z,9.80
2023-02-03T23:10:31.103Z,9.80
2023-02-03T23:13:17.038Z,9.80
2023-02-03T23:16:04.818Z,9.80
2023-02-03T23:18:52.765Z,9.80
2023-02-03T23:21:38.336Z,9.80
2023-02-03T23:24:23.786Z,9.80
2023-02-03T23:27:12.691Z,9.80
2023-02-03T23:30:00.844Z,9.80
2023-02-03T23:32:46.308Z,9.80
2023-02-03T23:35:47.008Z,9.80
2023-02-03T23:38:36.270Z,9.80
2023-02-03T23:41:21.853Z,9.80
2023-02-03T23:44:07.181Z,9.80
2023-02-03T23:46:54.610Z,9.80
2023-02-03T23:49:40.122Z,9.80
2023-02-03T23:52:25.596Z,9.80
2023-02-03T23:55:19.507Z,9.80
2023-02-03T23:58:05.120Z,9.90
